sensor_id;sensor_type;location;lat;lon;timestamp;pressure;altitude;pressure_sealevel;temperature;humidity
82672;BME280;72378;52.468;13.432;2024-01-15T00:01:30;98932.13;;;5.14;68.69
82672;BME280;72378;52.468;13.432;2024-01-15T00:03:56;98943.41;;;4.73;70.09
82672;BME280;72378;52.468;13.432;2024-01-15T00:06:22;98934.59;;;4.58;70.72
82672;BME280;72378;52.468;13.432;2024-01-15T00:08:49;98928.50;;;4.35;71.83
82672;BME280;72378;52.468;13.432;2024-01-15T00:11:15;98923.84;;;4.73;71.29
82672;BME280;72378;52.468;13.432;2024-01-15T00:13:41;98919.75;;;4.12;72.33
82672;BME280;72378;52.468;13.432;2024-01-15T00:16:08;98912.53;;;4.56;71.61
82672;BME280;72378;52.468;13.432;2024-01-15T00:18:35;98910.91;;;4.12;72.32
82672;BME280;72378;52.468;13.432;2024-01-15T00:21:02;98912.00;;;4.17;72.45
82672;BME280;72378;52.468;13.432;2024-01-15T00:23:28;98902.22;;;4.24;71.71
82672;BME280;72378;52.468;13.432;2024-01-15T00:25:55;98891.31;;;4.55;70.88
82672;BME280;72378;52.468;13.432;2024-01-15T00:28:22;98883.50;;;4.24;71.71
82672;BME280;72378;52.468;13.432;2024-01-15T00:30:48;98895.59;;;4.35;71.79
82672;BME280;72378;52.468;13.432;2024-01-15T00:33:14;98884.59;;;4.15;72.22
82672;BME280;72378;52.468;13.432;2024-01-15T00:35:42;98882.94;;;4.00;72.06
82672;BME280;72378;52.468;13.432;2024-01-15T00:38:08;98869.69;;;4.06;72.82
82672;BME280;72378;52.468;13.432;2024-01-15T00:40:35;98866.16;;;4.20;71.94
82672;BME280;72378;52.468;13.432;2024-01-15T00:43:01;98861.56;;;4.14;71.48
82672;BME280;72378;52.468;13.432;2024-01-15T00:45:28;98853.97;;;5.10;69.92
82672;BME280;72378;52.468;13.432;2024-01-15T00:47:54;98844.50;;;3.86;71.06
82672;BME280;72378;52.468;13.432;2024-01-15T00:50:21;98848.13;;;4.08;71.21
82672;BME280;72378;52.468;13.432;2024-01-15T00:52:49;98861.63;;;4.35;70.81
82672;BME280;72378;52.468;13.432;2024-01-15T00:55:15;98848.34;;;4.27;71.37
82672;BME280;72378;52.468;13.432;2024-01-15T00:57:41;98839.75;;;4.46;70.63
82672;BME280;72378;52.468;13.432;2024-01-15T01:00:08;98848.34;;;4.27;70.80
82672;BME280;72378;52.468;13.432;2024-01-15T01:02:35;98850.75;;;4.22;70.51
82672;BME280;72378;52.468;13.432;2024-01-15T01:05:01;98843.75;;;4.21;70.88
82672;BME280;72378;52.468;13.432;2024-01-15T01:07:28;98838.50;;;4.28;71.32
82672;BME280;72378;52.468;13.432;2024-01-15T01:09:56;98826.06;;;3.91;72.15
82672;BME280;72378;52.468;13.432;2024-01-15T01:12:22;98835.25;;;4.32;71.14
82672;BME280;72378;52.468;13.432;2024-01-15T01:14:48;98828.28;;;4.02;71.97
82672;BME280;72378;52.468;13.432;2024-01-15T01:17:15;98828.75;;;4.06;71.79
82672;BME280;72378;52.468;13.432;2024-01-15T01:19:41;98823.69;;;4.32;71.03
82672;BME280;72378;52.468;13.432;2024-01-15T01:22:07;98826.03;;;4.20;71.43
82672;BME280;72378;52.468;13.432;2024-01-15T01:24:34;98838.44;;;3.92;73.31
82672;BME280;72378;52.468;13.432;2024-01-15T01:27:02;98843.22;;;4.11;72.75
82672;BME280;72378;52.468;13.432;2024-01-15T01:29:28;98835.94;;;4.05;72.34
82672;BME280;72378;52.468;13.432;2024-01-15T01:31:55;98842.31;;;4.04;72.71
82672;BME280;72378;52.468;13.432;2024-01-15T01:34:22;98836.97;;;4.04;72.96
82672;BME280;72378;52.468;13.432;2024-01-15T01:36:48;98842.09;;;4.20;72.05
82672;BME280;72378;52.468;13.432;2024-01-15T01:39:14;98833.13;;;4.13;72.09
82672;BME280;72378;52.468;13.432;2024-01-15T01:41:41;98832.06;;;3.93;73.26
82672;BME280;72378;52.468;13.432;2024-01-15T01:44:08;98835.66;;;3.71;74.13
82672;BME280;72378;52.468;13.432;2024-01-15T01:46:36;98822.84;;;3.81;74.89
82672;BME280;72378;52.468;13.432;2024-01-15T01:49:05;98836.41;;;3.79;74.02
82672;BME280;72378;52.468;13.432;2024-01-15T01:51:31;98840.09;;;3.64;75.25
82672;BME280;72378;52.468;13.432;2024-01-15T01:54:00;98838.88;;;3.66;75.72
82672;BME280;72378;52.468;13.432;2024-01-15T01:56:26;98840.38;;;3.84;75.73
82672;BME280;72378;52.468;13.432;2024-01-15T01:58:53;98828.19;;;3.96;74.40
82672;BME280;72378;52.468;13.432;2024-01-15T02:01:21;98828.72;;;4.20;73.95
82672;BME280;72378;52.468;13.432;2024-01-15T02:03:48;98823.84;;;4.09;72.62
82672;BME280;72378;52.468;13.432;2024-01-15T02:06:14;98818.50;;;3.95;72.57
82672;BME280;72378;52.468;13.432;2024-01-15T02:08:43;98820.00;;;3.97;72.29
82672;BME280;72378;52.468;13.432;2024-01-15T02:11:10;98832.41;;;4.19;71.73
82672;BME280;72378;52.468;13.432;2024-01-15T02:13:36;98827.84;;;3.84;73.03
82672;BME280;72378;52.468;13.432;2024-01-15T02:16:02;98821.00;;;3.96;72.81
82672;BME280;72378;52.468;13.432;2024-01-15T02:18:39;98813.56;;;3.77;73.03
82672;BME280;72378;52.468;13.432;2024-01-15T02:21:06;98814.81;;;3.81;73.21
82672;BME280;72378;52.468;13.432;2024-01-15T02:23:33;98822.03;;;3.66;73.03
82672;BME280;72378;52.468;13.432;2024-01-15T02:26:01;98832.00;;;3.72;72.60
82672;BME280;72378;52.468;13.432;2024-01-15T02:28:27;98824.13;;;4.14;71.48
82672;BME280;72378;52.468;13.432;2024-01-15T02:30:53;98818.31;;;3.96;71.51
82672;BME280;72378;52.468;13.432;2024-01-15T02:33:20;98812.28;;;4.23;71.21
82672;BME280;72378;52.468;13.432;2024-01-15T02:35:46;98818.88;;;4.06;71.44
82672;BME280;72378;52.468;13.432;2024-01-15T02:38:15;98822.50;;;3.84;71.40
82672;BME280;72378;52.468;13.432;2024-01-15T02:40:43;98818.34;;;3.67;72.17
82672;BME280;72378;52.468;13.432;2024-01-15T02:43:09;98799.19;;;3.63;71.65
82672;BME280;72378;52.468;13.432;2024-01-15T02:45:36;98807.66;;;3.67;71.24
82672;BME280;72378;52.468;13.432;2024-01-15T02:48:02;98808.09;;;3.56;71.25
82672;BME280;72378;52.468;13.432;2024-01-15T02:50:29;98800.91;;;4.00;70.40
82672;BME280;72378;52.468;13.432;2024-01-15T02:52:55;98806.81;;;3.96;70.25
82672;BME280;72378;52.468;13.432;2024-01-15T02:55:21;98806.53;;;3.76;70.41
82672;BME280;72378;52.468;13.432;2024-01-15T02:57:49;98807.00;;;3.65;70.99
82672;BME280;72378;52.468;13.432;2024-01-15T03:00:15;98799.59;;;4.11;69.62
82672;BME280;72378;52.468;13.432;2024-01-15T03:02:44;98800.16;;;3.92;70.11
82672;BME280;72378;52.468;13.432;2024-01-15T03:05:10;98802.84;;;3.92;69.94
82672;BME280;72378;52.468;13.432;2024-01-15T03:07:37;98783.28;;;4.06;69.96
82672;BME280;72378;52.468;13.432;2024-01-15T03:10:04;98788.28;;;3.94;69.66
82672;BME280;72378;52.468;13.432;2024-01-15T03:12:32;98781.78;;;4.03;69.22
82672;BME280;72378;52.468;13.432;2024-01-15T03:14:59;98796.38;;;4.01;69.79
82672;BME280;72378;52.468;13.432;2024-01-15T03:17:26;98788.28;;;3.94;69.71
82672;BME280;72378;52.468;13.432;2024-01-15T03:19:52;98785.13;;;4.05;69.62
82672;BME280;72378;52.468;13.432;2024-01-15T03:22:18;98795.56;;;3.86;69.62
82672;BME280;72378;52.468;13.432;2024-01-15T03:24:45;98774.50;;;4.12;69.39
82672;BME280;72378;52.468;13.432;2024-01-15T03:27:11;98785.78;;;3.78;69.89
82672;BME280;72378;52.468;13.432;2024-01-15T03:29:39;98776.84;;;3.71;69.88
82672;BME280;72378;52.468;13.432;2024-01-15T03:32:07;98774.72;;;3.96;69.26
82672;BME280;72378;52.468;13.432;2024-01-15T03:34:33;98767.97;;;4.35;67.94
82672;BME280;72378;52.468;13.432;2024-01-15T03:36:59;98771.25;;;3.66;69.42
82672;BME280;72378;52.468;13.432;2024-01-15T03:39:26;98781.56;;;3.54;69.80
82672;BME280;72378;52.468;13.432;2024-01-15T03:41:52;98782.03;;;3.87;69.20
82672;BME280;72378;52.468;13.432;2024-01-15T03:44:18;98774.84;;;3.88;68.43
82672;BME280;72378;52.468;13.432;2024-01-15T03:46:45;98765.41;;;4.27;68.28
82672;BME280;72378;52.468;13.432;2024-01-15T03:49:12;98776.41;;;3.82;68.50
82672;BME280;72378;52.468;13.432;2024-01-15T03:51:39;98764.25;;;3.65;69.18
82672;BME280;72378;52.468;13.432;2024-01-15T03:54:05;98759.53;;;3.52;69.36
82672;BME280;72378;52.468;13.432;2024-01-15T03:56:31;98752.75;;;4.00;68.56
82672;BME280;72378;52.468;13.432;2024-01-15T03:58:59;98752.69;;;3.94;67.91
82672;BME280;72378;52.468;13.432;2024-01-15T04:01:25;98741.00;;;3.80;68.06
82672;BME280;72378;52.468;13.432;2024-01-15T04:03:51;98750.13;;;3.71;68.29
82672;BME280;72378;52.468;13.432;2024-01-15T04:06:19;98743.75;;;3.87;68.35
82672;BME280;72378;52.468;13.432;2024-01-15T04:08:46;98740.44;;;3.99;68.24
82672;BME280;72378;52.468;13.432;2024-01-15T04:11:12;98734.38;;;3.76;68.76
82672;BME280;72378;52.468;13.432;2024-01-15T04:13:38;98731.44;;;4.07;67.48
82672;BME280;72378;52.468;13.432;2024-01-15T04:16:05;98736.41;;;3.74;68.24
82672;BME280;72378;52.468;13.432;2024-01-15T04:18:32;98719.97;;;3.92;67.52
82672;BME280;72378;52.468;13.432;2024-01-15T04:20:58;98722.16;;;4.03;67.31
82672;BME280;72378;52.468;13.432;2024-01-15T04:23:26;98712.03;;;3.48;68.76
82672;BME280;72378;52.468;13.432;2024-01-15T04:25:52;98712.94;;;3.55;68.58
82672;BME280;72378;52.468;13.432;2024-01-15T04:28:19;98713.91;;;3.83;68.09
82672;BME280;72378;52.468;13.432;2024-01-15T04:30:45;98704.53;;;4.29;66.65
82672;BME280;72378;52.468;13.432;2024-01-15T04:33:11;98714.84;;;4.11;67.24
82672;BME280;72378;52.468;13.432;2024-01-15T04:35:38;98732.16;;;3.79;68.18
82672;BME280;72378;52.468;13.432;2024-01-15T04:38:04;98729.28;;;3.96;67.41
82672;BME280;72378;52.468;13.432;2024-01-15T04:40:32;98725.81;;;3.66;67.89
82672;BME280;72378;52.468;13.432;2024-01-15T04:42:58;98723.94;;;3.81;67.60
82672;BME280;72378;52.468;13.432;2024-01-15T04:45:25;98711.69;;;3.87;67.58
82672;BME280;72378;52.468;13.432;2024-01-15T04:47:54;98716.84;;;3.88;67.30
82672;BME280;72378;52.468;13.432;2024-01-15T04:50:21;98709.78;;;3.81;67.36
82672;BME280;72378;52.468;13.432;2024-01-15T04:52:47;98701.31;;;3.98;67.22
82672;BME280;72378;52.468;13.432;2024-01-15T04:55:13;98684.00;;;3.58;67.59
82672;BME280;72378;52.468;13.432;2024-01-15T04:57:41;98686.38;;;3.68;67.15
82672;BME280;72378;52.468;13.432;2024-01-15T05:00:10;98688.91;;;3.91;67.02
82672;BME280;72378;52.468;13.432;2024-01-15T05:02:38;98694.44;;;3.89;66.97
82672;BME280;72378;52.468;13.432;2024-01-15T05:05:04;98697.44;;;4.01;66.61
82672;BME280;72378;52.468;13.432;2024-01-15T05:07:30;98698.63;;;3.98;66.63
82672;BME280;72378;52.468;13.432;2024-01-15T05:09:57;98696.97;;;4.33;65.36
82672;BME280;72378;52.468;13.432;2024-01-15T05:12:23;98701.94;;;3.79;66.53
82672;BME280;72378;52.468;13.432;2024-01-15T05:14:51;98690.06;;;3.67;66.93
82672;BME280;72378;52.468;13.432;2024-01-15T05:17:17;98706.25;;;3.80;67.05
82672;BME280;72378;52.468;13.432;2024-01-15T05:19:43;98687.94;;;3.98;67.16
82672;BME280;72378;52.468;13.432;2024-01-15T05:22:10;98695.63;;;3.87;68.09
82672;BME280;72378;52.468;13.432;2024-01-15T05:24:36;98701.38;;;4.05;68.17
82672;BME280;72378;52.468;13.432;2024-01-15T05:27:03;98703.28;;;3.90;68.09
82672;BME280;72378;52.468;13.432;2024-01-15T05:29:29;98703.16;;;3.62;69.00
82672;BME280;72378;52.468;13.432;2024-01-15T05:31:57;98693.50;;;3.97;68.11
82672;BME280;72378;52.468;13.432;2024-01-15T05:34:23;98695.97;;;3.98;67.83
82672;BME280;72378;52.468;13.432;2024-01-15T05:36:50;98685.72;;;3.81;67.62
82672;BME280;72378;52.468;13.432;2024-01-15T05:39:16;98680.75;;;3.99;67.56
82672;BME280;72378;52.468;13.432;2024-01-15T05:41:42;98670.94;;;3.85;67.04
82672;BME280;72378;52.468;13.432;2024-01-15T05:44:08;98679.22;;;3.90;67.31
82672;BME280;72378;52.468;13.432;2024-01-15T05:46:35;98667.19;;;4.42;66.10
82672;BME280;72378;52.468;13.432;2024-01-15T05:49:02;98670.00;;;4.13;66.37
82672;BME280;72378;52.468;13.432;2024-01-15T05:51:29;98686.03;;;3.92;67.68
82672;BME280;72378;52.468;13.432;2024-01-15T05:53:55;98678.69;;;3.79;68.35
82672;BME280;72378;52.468;13.432;2024-01-15T05:56:22;98669.25;;;4.19;66.92
82672;BME280;72378;52.468;13.432;2024-01-15T05:58:49;98674.69;;;3.90;73.22
82672;BME280;72378;52.468;13.432;2024-01-15T06:01:15;98676.25;;;3.99;69.00
82672;BME280;72378;52.468;13.432;2024-01-15T06:03:42;98681.91;;;3.54;70.74
82672;BME280;72378;52.468;13.432;2024-01-15T06:06:09;98689.63;;;3.63;70.79
82672;BME280;72378;52.468;13.432;2024-01-15T06:08:36;98678.63;;;3.73;70.28
82672;BME280;72378;52.468;13.432;2024-01-15T06:11:03;98685.31;;;3.84;70.46
82672;BME280;72378;52.468;13.432;2024-01-15T06:13:30;98688.09;;;4.11;69.46
82672;BME280;72378;52.468;13.432;2024-01-15T06:15:56;98677.91;;;4.21;68.67
82672;BME280;72378;52.468;13.432;2024-01-15T06:18:22;98679.69;;;4.14;68.44
82672;BME280;72378;52.468;13.432;2024-01-15T06:20:49;98674.28;;;4.29;68.13
82672;BME280;72378;52.468;13.432;2024-01-15T06:23:17;98665.97;;;3.82;69.13
82672;BME280;72378;52.468;13.432;2024-01-15T06:25:43;98668.44;;;3.98;69.03
82672;BME280;72378;52.468;13.432;2024-01-15T06:28:09;98669.00;;;4.14;68.12
82672;BME280;72378;52.468;13.432;2024-01-15T06:30:35;98673.91;;;4.11;68.06
82672;BME280;72378;52.468;13.432;2024-01-15T06:33:02;98679.56;;;4.01;69.10
82672;BME280;72378;52.468;13.432;2024-01-15T06:35:28;98675.94;;;3.88;69.47
82672;BME280;72378;52.468;13.432;2024-01-15T06:37:55;98674.91;;;3.89;69.86
82672;BME280;72378;52.468;13.432;2024-01-15T06:40:23;98676.88;;;4.22;69.10
82672;BME280;72378;52.468;13.432;2024-01-15T06:42:50;98680.63;;;4.49;68.61
82672;BME280;72378;52.468;13.432;2024-01-15T06:45:16;98677.91;;;4.00;69.32
82672;BME280;72378;52.468;13.432;2024-01-15T06:47:42;98665.41;;;4.49;68.06
82672;BME280;72378;52.468;13.432;2024-01-15T06:50:09;98668.34;;;4.12;68.73
82672;BME280;72378;52.468;13.432;2024-01-15T06:52:35;98684.28;;;4.41;67.90
82672;BME280;72378;52.468;13.432;2024-01-15T06:55:02;98676.06;;;4.22;68.38
82672;BME280;72378;52.468;13.432;2024-01-15T06:57:30;98676.78;;;4.09;68.54
82672;BME280;72378;52.468;13.432;2024-01-15T06:59:57;98677.03;;;4.14;68.39
82672;BME280;72378;52.468;13.432;2024-01-15T07:02:23;98685.09;;;4.00;68.51
82672;BME280;72378;52.468;13.432;2024-01-15T07:04:49;98674.72;;;4.32;67.38
82672;BME280;72378;52.468;13.432;2024-01-15T07:07:16;98673.84;;;4.04;67.90
82672;BME280;72378;52.468;13.432;2024-01-15T07:09:42;98681.63;;;3.85;68.11
82672;BME280;72378;52.468;13.432;2024-01-15T07:12:11;98685.41;;;3.90;67.67
82672;BME280;72378;52.468;13.432;2024-01-15T07:14:39;98685.69;;;4.37;67.00
82672;BME280;72378;52.468;13.432;2024-01-15T07:17:05;98696.22;;;4.03;67.11
82672;BME280;72378;52.468;13.432;2024-01-15T07:19:31;98694.94;;;4.35;66.52
82672;BME280;72378;52.468;13.432;2024-01-15T07:21:58;98701.53;;;4.18;66.81
82672;BME280;72378;52.468;13.432;2024-01-15T07:24:24;98698.09;;;4.24;66.38
82672;BME280;72378;52.468;13.432;2024-01-15T07:26:50;98706.50;;;4.21;66.53
82672;BME280;72378;52.468;13.432;2024-01-15T07:29:17;98713.69;;;4.20;66.52
82672;BME280;72378;52.468;13.432;2024-01-15T07:31:49;98705.56;;;4.49;65.53
82672;BME280;72378;52.468;13.432;2024-01-15T07:34:15;98715.38;;;4.63;65.53
82672;BME280;72378;52.468;13.432;2024-01-15T07:36:42;98723.06;;;4.52;65.68
82672;BME280;72378;52.468;13.432;2024-01-15T07:39:08;98718.81;;;4.36;65.25
82672;BME280;72378;52.468;13.432;2024-01-15T07:41:36;98729.63;;;4.28;65.26
82672;BME280;72378;52.468;13.432;2024-01-15T07:44:03;98737.38;;;4.65;65.53
82672;BME280;72378;52.468;13.432;2024-01-15T07:46:29;98732.78;;;4.80;64.80
82672;BME280;72378;52.468;13.432;2024-01-15T07:48:57;98738.22;;;4.87;64.15
82672;BME280;72378;52.468;13.432;2024-01-15T07:51:24;98742.75;;;4.65;64.61
82672;BME280;72378;52.468;13.432;2024-01-15T07:53:50;98725.69;;;4.24;65.12
82672;BME280;72378;52.468;13.432;2024-01-15T07:56:16;98731.72;;;4.54;64.69
82672;BME280;72378;52.468;13.432;2024-01-15T07:58:43;98742.19;;;4.70;64.39
82672;BME280;72378;52.468;13.432;2024-01-15T08:01:09;98756.75;;;4.88;64.52
82672;BME280;72378;52.468;13.432;2024-01-15T08:03:36;98754.84;;;4.40;65.60
82672;BME280;72378;52.468;13.432;2024-01-15T08:06:05;98751.84;;;4.92;64.77
82672;BME280;72378;52.468;13.432;2024-01-15T08:08:35;98747.69;;;4.89;63.94
82672;BME280;72378;52.468;13.432;2024-01-15T08:11:01;98751.94;;;5.05;64.14
82672;BME280;72378;52.468;13.432;2024-01-15T08:13:28;98754.66;;;4.42;65.24
82672;BME280;72378;52.468;13.432;2024-01-15T08:15:54;98752.69;;;4.50;65.41
82672;BME280;72378;52.468;13.432;2024-01-15T08:18:20;98748.72;;;4.67;64.80
82672;BME280;72378;52.468;13.432;2024-01-15T08:20:46;98747.84;;;4.60;65.04
82672;BME280;72378;52.468;13.432;2024-01-15T08:23:14;98758.81;;;4.44;65.14
82672;BME280;72378;52.468;13.432;2024-01-15T08:25:41;98751.78;;;4.43;66.22
82672;BME280;72378;52.468;13.432;2024-01-15T08:28:07;98756.72;;;5.10;64.28
82672;BME280;72378;52.468;13.432;2024-01-15T08:30:33;98746.16;;;5.29;63.47
82672;BME280;72378;52.468;13.432;2024-01-15T08:33:00;98737.78;;;4.83;63.21
82672;BME280;72378;52.468;13.432;2024-01-15T08:35:26;98747.84;;;4.60;64.87
82672;BME280;72378;52.468;13.432;2024-01-15T08:37:52;98747.78;;;5.02;63.74
82672;BME280;72378;52.468;13.432;2024-01-15T08:40:20;98741.78;;;4.73;64.58
82672;BME280;72378;52.468;13.432;2024-01-15T08:42:47;98753.53;;;4.72;65.02
82672;BME280;72378;52.468;13.432;2024-01-15T08:45:14;98740.84;;;4.59;64.58
82672;BME280;72378;52.468;13.432;2024-01-15T08:47:40;98762.22;;;4.80;64.48
82672;BME280;72378;52.468;13.432;2024-01-15T08:50:07;98759.06;;;4.70;64.20
82672;BME280;72378;52.468;13.432;2024-01-15T08:52:35;98757.31;;;5.05;63.39
82672;BME280;72378;52.468;13.432;2024-01-15T08:55:02;98759.09;;;4.98;64.11
82672;BME280;72378;52.468;13.432;2024-01-15T08:57:30;98761.44;;;5.07;62.94
82672;BME280;72378;52.468;13.432;2024-01-15T08:59:57;98758.44;;;4.47;65.05
82672;BME280;72378;52.468;13.432;2024-01-15T09:02:23;98765.72;;;5.30;63.22
82672;BME280;72378;52.468;13.432;2024-01-15T09:04:50;98770.16;;;4.46;64.58
82672;BME280;72378;52.468;13.432;2024-01-15T09:07:17;98754.66;;;4.84;64.88
82672;BME280;72378;52.468;13.432;2024-01-15T09:09:44;98765.31;;;4.56;65.79
82672;BME280;72378;52.468;13.432;2024-01-15T09:12:10;98759.44;;;4.67;65.01
82672;BME280;72378;52.468;13.432;2024-01-15T09:14:42;98756.44;;;4.56;65.56
82672;BME280;72378;52.468;13.432;2024-01-15T09:17:09;98766.06;;;4.50;65.81
82672;BME280;72378;52.468;13.432;2024-01-15T09:19:35;98770.53;;;4.64;65.67
82672;BME280;72378;52.468;13.432;2024-01-15T09:22:01;98759.25;;;4.48;66.23
82672;BME280;72378;52.468;13.432;2024-01-15T09:24:28;98781.41;;;4.84;65.75
82672;BME280;72378;52.468;13.432;2024-01-15T09:26:54;98775.75;;;4.93;64.74
82672;BME280;72378;52.468;13.432;2024-01-15T09:29:20;98780.44;;;5.40;64.36
82672;BME280;72378;52.468;13.432;2024-01-15T09:31:50;98782.59;;;5.24;63.90
82672;BME280;72378;52.468;13.432;2024-01-15T09:34:17;98789.91;;;5.70;63.51
82672;BME280;72378;52.468;13.432;2024-01-15T09:36:44;98793.66;;;4.93;64.82
82672;BME280;72378;52.468;13.432;2024-01-15T09:39:11;98808.97;;;5.27;64.48
82672;BME280;72378;52.468;13.432;2024-01-15T09:41:38;98814.50;;;4.55;66.14
82672;BME280;72378;52.468;13.432;2024-01-15T09:44:04;98804.72;;;5.11;64.18
82672;BME280;72378;52.468;13.432;2024-01-15T09:46:33;98791.94;;;4.64;65.72
82672;BME280;72378;52.468;13.432;2024-01-15T09:49:01;98791.34;;;5.11;64.99
82672;BME280;72378;52.468;13.432;2024-01-15T09:51:29;98795.31;;;4.52;65.88
82672;BME280;72378;52.468;13.432;2024-01-15T09:53:57;98789.97;;;4.73;65.65
82672;BME280;72378;52.468;13.432;2024-01-15T09:56:24;98788.00;;;5.30;64.13
82672;BME280;72378;52.468;13.432;2024-01-15T09:58:50;98785.53;;;5.07;64.09
82672;BME280;72378;52.468;13.432;2024-01-15T10:01:20;98767.34;;;4.75;65.03
82672;BME280;72378;52.468;13.432;2024-01-15T10:03:46;98778.50;;;4.79;65.42
82672;BME280;72378;52.468;13.432;2024-01-15T10:06:16;98775.41;;;5.03;65.16
82672;BME280;72378;52.468;13.432;2024-01-15T10:08:47;98787.25;;;5.15;64.09
82672;BME280;72378;52.468;13.432;2024-01-15T10:11:14;98779.69;;;4.97;64.25
82672;BME280;72378;52.468;13.432;2024-01-15T10:13:40;98770.41;;;4.93;64.42
82672;BME280;72378;52.468;13.432;2024-01-15T10:16:07;98784.69;;;5.00;64.60
82672;BME280;72378;52.468;13.432;2024-01-15T10:18:34;98764.94;;;5.36;63.73
82672;BME280;72378;52.468;13.432;2024-01-15T10:21:02;98760.22;;;5.78;62.86
82672;BME280;72378;52.468;13.432;2024-01-15T10:23:31;98768.63;;;4.79;64.81
82672;BME280;72378;52.468;13.432;2024-01-15T10:25:58;98764.78;;;4.67;65.14
82672;BME280;72378;52.468;13.432;2024-01-15T10:28:26;98756.94;;;5.15;64.35
82672;BME280;72378;52.468;13.432;2024-01-15T10:30:56;98752.31;;;5.64;62.61
82672;BME280;72378;52.468;13.432;2024-01-15T10:33:24;98761.16;;;5.24;63.95
82672;BME280;72378;52.468;13.432;2024-01-15T10:35:53;98747.16;;;5.96;62.30
82672;BME280;72378;52.468;13.432;2024-01-15T10:38:20;98763.78;;;5.51;62.72
82672;BME280;72378;52.468;13.432;2024-01-15T10:40:51;98765.22;;;5.20;63.80
82672;BME280;72378;52.468;13.432;2024-01-15T10:43:17;98770.91;;;5.03;64.09
82672;BME280;72378;52.468;13.432;2024-01-15T10:45:44;98757.75;;;5.09;64.14
82672;BME280;72378;52.468;13.432;2024-01-15T10:48:10;98761.31;;;5.50;63.12
82672;BME280;72378;52.468;13.432;2024-01-15T10:50:37;98757.84;;;5.22;63.37
82672;BME280;72378;52.468;13.432;2024-01-15T10:53:04;98741.34;;;5.25;63.44
82672;BME280;72378;52.468;13.432;2024-01-15T10:55:31;98743.50;;;5.36;62.95
82672;BME280;72378;52.468;13.432;2024-01-15T10:58:00;98744.72;;;6.08;61.02
82672;BME280;72378;52.468;13.432;2024-01-15T11:00:27;98744.78;;;6.28;59.78
82672;BME280;72378;52.468;13.432;2024-01-15T11:02:54;98753.13;;;6.65;59.45
82672;BME280;72378;52.468;13.432;2024-01-15T11:05:21;98756.06;;;5.69;60.51
82672;BME280;72378;52.468;13.432;2024-01-15T11:07:48;98761.34;;;5.22;62.33
82672;BME280;72378;52.468;13.432;2024-01-15T11:10:38;98749.72;;;6.24;61.30
82672;BME280;72378;52.468;13.432;2024-01-15T11:13:09;98764.19;;;6.23;60.04
82672;BME280;72378;52.468;13.432;2024-01-15T11:15:54;98753.69;;;6.41;59.91
82672;BME280;72378;52.468;13.432;2024-01-15T11:18:20;98759.31;;;5.58;61.81
82672;BME280;72378;52.468;13.432;2024-01-15T11:23:42;98761.47;;;5.76;61.88
82672;BME280;72378;52.468;13.432;2024-01-15T11:26:26;98741.34;;;5.86;61.24
82672;BME280;72378;52.468;13.432;2024-01-15T11:28:55;98751.38;;;5.44;62.95
82672;BME280;72378;52.468;13.432;2024-01-15T11:31:26;98757.28;;;5.67;61.94
82672;BME280;72378;52.468;13.432;2024-01-15T11:33:53;98757.94;;;6.09;61.73
82672;BME280;72378;52.468;13.432;2024-01-15T11:36:20;98770.88;;;5.93;62.27
82672;BME280;72378;52.468;13.432;2024-01-15T11:38:47;98770.66;;;5.60;63.21
82672;BME280;72378;52.468;13.432;2024-01-15T11:41:13;98772.16;;;5.69;63.12
82672;BME280;72378;52.468;13.432;2024-01-15T11:43:41;98770.47;;;5.62;63.82
82672;BME280;72378;52.468;13.432;2024-01-15T11:46:11;98765.00;;;5.76;63.92
82672;BME280;72378;52.468;13.432;2024-01-15T11:48:43;98774.88;;;6.10;64.41
82672;BME280;72378;52.468;13.432;2024-01-15T11:51:11;98777.19;;;5.17;65.12
82672;BME280;72378;52.468;13.432;2024-01-15T11:53:43;98771.53;;;4.84;67.66
82672;BME280;72378;52.468;13.432;2024-01-15T11:56:14;98779.56;;;5.06;67.40
82672;BME280;72378;52.468;13.432;2024-01-15T11:58:41;98785.44;;;4.94;68.22
82672;BME280;72378;52.468;13.432;2024-01-15T12:01:07;98772.06;;;4.73;67.83
82672;BME280;72378;52.468;13.432;2024-01-15T12:03:36;98774.69;;;5.16;66.61
82672;BME280;72378;52.468;13.432;2024-01-15T12:06:05;98783.44;;;5.03;67.47
82672;BME280;72378;52.468;13.432;2024-01-15T12:08:31;98782.97;;;4.51;68.20
82672;BME280;72378;52.468;13.432;2024-01-15T12:10:58;98788.28;;;5.14;67.25
82672;BME280;72378;52.468;13.432;2024-01-15T12:13:24;98799.22;;;5.47;65.79
82672;BME280;72378;52.468;13.432;2024-01-15T12:15:51;98795.97;;;5.24;66.19
82672;BME280;72378;52.468;13.432;2024-01-15T12:18:18;98795.75;;;5.19;66.06
82672;BME280;72378;52.468;13.432;2024-01-15T12:20:46;98798.22;;;5.20;66.09
82672;BME280;72378;52.468;13.432;2024-01-15T12:23:13;98783.59;;;4.95;67.05
82672;BME280;72378;52.468;13.432;2024-01-15T12:25:39;98791.38;;;5.18;66.01
82672;BME280;72378;52.468;13.432;2024-01-15T12:28:06;98785.47;;;4.73;66.65
82672;BME280;72378;52.468;13.432;2024-01-15T12:30:34;98791.69;;;5.29;64.85
82672;BME280;72378;52.468;13.432;2024-01-15T12:33:01;98791.03;;;5.21;65.42
82672;BME280;72378;52.468;13.432;2024-01-15T12:35:29;98793.53;;;5.01;66.48
82672;BME280;72378;52.468;13.432;2024-01-15T12:37:57;98793.41;;;4.88;66.39
82672;BME280;72378;52.468;13.432;2024-01-15T12:40:27;98786.13;;;5.65;64.01
82672;BME280;72378;52.468;13.432;2024-01-15T12:42:54;98805.28;;;5.28;65.28
82672;BME280;72378;52.468;13.432;2024-01-15T12:45:21;98788.59;;;5.04;65.41
82672;BME280;72378;52.468;13.432;2024-01-15T12:47:48;98797.28;;;5.07;66.30
82672;BME280;72378;52.468;13.432;2024-01-15T12:50:16;98794.13;;;5.24;65.72
82672;BME280;72378;52.468;13.432;2024-01-15T12:52:42;98799.81;;;5.15;67.98
82672;BME280;72378;52.468;13.432;2024-01-15T12:55:10;98809.97;;;5.19;68.25
82672;BME280;72378;52.468;13.432;2024-01-15T12:57:37;98810.38;;;4.95;68.04
82672;BME280;72378;52.468;13.432;2024-01-15T13:00:05;98810.75;;;4.92;68.18
82672;BME280;72378;52.468;13.432;2024-01-15T13:02:32;98814.13;;;4.79;68.71